createdAt,value
2018-03-30T00:02:08.466Z,8.20
2018-03-30T00:04:37.188Z,7.30
2018-03-30T00:07:04.794Z,6.93
2018-03-30T00:09:32.597Z,7.53
2018-03-30T00:12:00.555Z,8.13
2018-03-30T00:14:28.366Z,8.20
2018-03-30T00:16:56.775Z,7.50
2018-03-30T00:19:24.877Z,7.40
2018-03-30T00:21:52.926Z,7.17
2018-03-30T00:24:21.897Z,7.97
2018-03-30T00:26:50.250Z,8.33
2018-03-30T00:29:18.207Z,6.70
2018-03-30T00:31:46.173Z,7.20
2018-03-30T00:34:13.883Z,8.03
2018-03-30T00:36:41.918Z,7.50
2018-03-30T00:39:10.236Z,7.63
2018-03-30T00:41:38.782Z,6.83
2018-03-30T00:44:07.296Z,7.83
2018-03-30T00:46:35.198Z,7.87
2018-03-30T00:49:03.820Z,7.30
2018-03-30T00:51:32.802Z,7.50
2018-03-30T00:54:01.555Z,6.93
2018-03-30T00:56:29.380Z,7.17
2018-03-30T00:58:57.156Z,7.13
2018-03-30T01:01:24.955Z,7.17
2018-03-30T01:03:52.806Z,7.67
2018-03-30T01:06:21.063Z,7.07
2018-03-30T01:08:49.845Z,7.03
2018-03-30T01:11:17.722Z,7.87
2018-03-30T01:13:46.918Z,6.50
2018-03-30T01:16:14.677Z,7.40
2018-03-30T01:18:42.888Z,7.33
2018-03-30T01:21:10.869Z,7.03
2018-03-30T01:23:39.443Z,7.17
2018-03-30T01:26:07.827Z,7.77
2018-03-30T01:28:35.983Z,6.97
2018-03-30T01:31:05.075Z,7.60
2018-03-30T01:33:37.117Z,7.70
2018-03-30T01:36:05.900Z,7.40
2018-03-30T01:38:35.119Z,7.90
2018-03-30T01:41:03.817Z,8.13
2018-03-30T01:43:31.520Z,7.90
2018-03-30T01:45:59.577Z,8.00
2018-03-30T01:48:28.591Z,7.70
2018-03-30T01:50:56.389Z,7.83
2018-03-30T01:53:24.408Z,8.70
2018-03-30T01:55:53.883Z,7.87
2018-03-30T01:58:21.660Z,8.40
2018-03-30T02:00:49.363Z,7.63
2018-03-30T02:03:16.919Z,8.23
2018-03-30T02:08:20.699Z,7.53
2018-03-30T02:10:48.835Z,7.63
2018-03-30T02:13:17.744Z,7.50
2018-03-30T02:15:46.129Z,7.17
2018-03-30T02:18:13.798Z,7.63
2018-03-30T02:20:41.804Z,7.97
2018-03-30T02:23:10.680Z,8.07
2018-03-30T02:25:39.526Z,8.07
2018-03-30T02:28:08.442Z,7.97
2018-03-30T02:30:37.576Z,8.27
2018-03-30T02:33:05.809Z,8.03
2018-03-30T02:35:33.932Z,7.10
2018-03-30T02:38:01.948Z,6.93
2018-03-30T02:40:30.031Z,6.13
2018-03-30T02:42:58.932Z,6.60
2018-03-30T02:45:26.925Z,6.50
2018-03-30T02:47:56.907Z,7.77
2018-03-30T02:50:26.094Z,7.10
2018-03-30T02:52:55.389Z,8.70
2018-03-30T02:55:23.443Z,7.20
2018-03-30T02:57:51.418Z,8.07
2018-03-30T03:00:19.375Z,8.07
2018-03-30T03:02:47.040Z,7.93
2018-03-30T03:05:14.757Z,6.93
2018-03-30T03:07:42.862Z,7.70
2018-03-30T03:10:10.778Z,7.07
2018-03-30T03:12:38.572Z,7.40
2018-03-30T03:15:06.277Z,6.70
2018-03-30T03:17:34.650Z,7.80
2018-03-30T03:20:02.524Z,7.70
2018-03-30T03:22:32.905Z,7.83
2018-03-30T03:25:01.190Z,7.10
2018-03-30T03:27:28.869Z,6.97
2018-03-30T03:29:57.321Z,7.03
2018-03-30T03:32:25.080Z,7.97
2018-03-30T03:34:52.921Z,7.50
2018-03-30T03:37:20.974Z,7.30
2018-03-30T03:39:49.028Z,8.00
2018-03-30T03:42:16.796Z,7.57
2018-03-30T03:44:45.078Z,7.53
2018-03-30T03:47:13.356Z,6.30
2018-03-30T03:49:41.064Z,7.43
2018-03-30T03:52:08.768Z,6.47
2018-03-30T03:54:37.389Z,8.40
2018-03-30T03:57:08.014Z,7.53
2018-03-30T03:59:35.693Z,7.50
2018-03-30T04:02:03.754Z,7.50
2018-03-30T04:04:31.645Z,7.43
2018-03-30T04:06:59.474Z,6.80
2018-03-30T04:09:28.311Z,6.93
2018-03-30T04:11:57.098Z,7.40
2018-03-30T04:14:25.132Z,6.77
2018-03-30T04:16:52.731Z,6.60
2018-03-30T04:19:20.481Z,7.57
2018-03-30T04:21:48.739Z,6.77
2018-03-30T04:24:20.312Z,6.93
2018-03-30T04:26:49.659Z,7.30
2018-03-30T04:29:18.248Z,6.80
2018-03-30T04:31:46.523Z,6.70
2018-03-30T04:34:14.368Z,6.77
2018-03-30T04:36:43.027Z,6.90
2018-03-30T04:39:10.960Z,7.43
2018-03-30T04:41:40.248Z,7.67
2018-03-30T04:44:08.046Z,7.07
2018-03-30T04:46:36.154Z,7.00
2018-03-30T04:49:05.151Z,7.30
2018-03-30T04:51:35.448Z,7.23
2018-03-30T04:54:04.220Z,7.10
2018-03-30T04:56:32.584Z,6.03
2018-03-30T04:59:00.442Z,7.63
2018-03-30T05:01:29.481Z,6.07
2018-03-30T05:03:57.857Z,6.53
2018-03-30T05:06:26.210Z,7.27
2018-03-30T05:08:54.504Z,7.07
2018-03-30T05:11:23.064Z,7.47
2018-03-30T05:13:51.050Z,7.30
2018-03-30T05:16:19.632Z,6.87
2018-03-30T05:18:47.386Z,6.07
2018-03-30T05:21:16.628Z,6.90
2018-03-30T05:23:44.288Z,6.63
2018-03-30T05:26:12.534Z,7.53
2018-03-30T05:28:41.355Z,6.80
2018-03-30T05:31:10.420Z,6.83
2018-03-30T05:33:38.604Z,7.47
2018-03-30T05:36:06.374Z,6.77
2018-03-30T05:38:34.313Z,6.77
2018-03-30T05:41:03.142Z,7.33
2018-03-30T05:43:32.194Z,7.83
2018-03-30T05:46:00.711Z,7.33
2018-03-30T05:48:28.326Z,6.40
2018-03-30T05:50:55.930Z,7.60
2018-03-30T05:53:23.743Z,6.93
2018-03-30T05:55:51.976Z,7.00
2018-03-30T05:58:19.829Z,7.53
2018-03-30T06:00:48.085Z,6.60
2018-03-30T06:03:15.948Z,7.20
2018-03-30T06:05:45.204Z,7.00
2018-03-30T06:08:13.062Z,6.47
2018-03-30T06:10:40.892Z,6.90
2018-03-30T06:13:09.072Z,6.17
2018-03-30T06:15:37.364Z,6.47
2018-03-30T06:18:05.330Z,6.70
2018-03-30T06:20:34.140Z,7.20
2018-03-30T06:23:02.258Z,6.83
2018-03-30T06:25:30.067Z,6.90
2018-03-30T06:27:57.918Z,7.87
2018-03-30T06:30:25.702Z,7.87
2018-03-30T06:32:53.443Z,6.20
2018-03-30T06:35:21.257Z,7.00
2018-03-30T06:37:50.072Z,7.60
2018-03-30T06:40:17.799Z,6.20
2018-03-30T06:42:45.491Z,7.00
2018-03-30T06:45:13.574Z,6.70
2018-03-30T06:47:42.277Z,6.87
2018-03-30T06:50:10.067Z,6.50
2018-03-30T06:52:38.247Z,7.03
2018-03-30T06:55:06.575Z,7.47
2018-03-30T06:57:34.295Z,7.03
2018-03-30T07:00:02.205Z,7.30
2018-03-30T07:02:30.418Z,7.53
2018-03-30T07:04:59.335Z,6.13
2018-03-30T07:07:28.462Z,6.93
2018-03-30T07:09:57.086Z,7.17
2018-03-30T07:12:25.062Z,6.67
2018-03-30T07:14:53.178Z,7.07
2018-03-30T07:17:21.607Z,6.50
2018-03-30T07:19:49.658Z,6.97
2018-03-30T07:22:17.401Z,7.00
2018-03-30T07:24:45.162Z,6.90
2018-03-30T07:27:13.242Z,6.87
2018-03-30T07:29:41.175Z,7.40
2018-03-30T07:32:09.075Z,7.20
2018-03-30T07:34:36.870Z,7.07
2018-03-30T07:37:04.977Z,6.13
2018-03-30T07:39:32.795Z,6.77
2018-03-30T07:42:00.647Z,7.00
2018-03-30T07:44:28.432Z,7.13
2018-03-30T07:46:56.950Z,7.27
2018-03-30T07:49:25.515Z,7.70
2018-03-30T07:51:53.919Z,6.50
2018-03-30T07:54:22.657Z,6.47
2018-03-30T07:56:50.650Z,7.07
2018-03-30T07:59:18.711Z,7.03
2018-03-30T08:01:46.546Z,6.90
2018-03-30T08:04:14.230Z,7.53
2018-03-30T08:06:42.471Z,6.40
2018-03-30T08:09:11.088Z,6.10
2018-03-30T08:11:38.894Z,7.00
2018-03-30T08:14:06.559Z,6.50
2018-03-30T08:16:34.352Z,6.23
2018-03-30T08:19:02.234Z,7.10
2018-03-30T08:21:30.114Z,7.10
2018-03-30T08:23:57.979Z,6.83
2018-03-30T08:26:26.305Z,6.77
2018-03-30T08:28:54.339Z,6.87
2018-03-30T08:31:22.884Z,7.20
2018-03-30T08:33:50.836Z,6.90
2018-03-30T08:36:19.585Z,6.87
2018-03-30T08:38:48.013Z,6.67
2018-03-30T08:41:16.209Z,7.20
2018-03-30T08:43:43.801Z,6.43
2018-03-30T08:46:12.416Z,6.20
2018-03-30T08:48:40.837Z,5.77
2018-03-30T08:51:09.668Z,6.97
2018-03-30T08:53:38.250Z,7.60
2018-03-30T08:56:06.718Z,6.90
2018-03-30T08:58:35.645Z,6.60
2018-03-30T09:01:04.496Z,7.83
2018-03-30T09:03:32.456Z,6.07
2018-03-30T09:06:00.485Z,6.20
2018-03-30T09:08:29.572Z,7.00
2018-03-30T09:10:57.390Z,6.20
2018-03-30T09:13:25.401Z,7.03
2018-03-30T09:15:53.252Z,6.40
2018-03-30T09:18:21.738Z,6.30
2018-03-30T09:20:49.764Z,7.00
2018-03-30T09:23:18.362Z,6.33
2018-03-30T09:25:46.804Z,6.27
2018-03-30T09:28:14.875Z,6.23
2018-03-30T09:30:43.097Z,6.00
2018-03-30T09:33:11.382Z,6.70
2018-03-30T09:35:40.650Z,6.20
2018-03-30T09:38:08.740Z,6.33
2018-03-30T09:40:36.874Z,7.53
2018-03-30T09:43:05.505Z,7.20
2018-03-30T09:45:33.744Z,6.20
2018-03-30T09:48:02.118Z,7.03
2018-03-30T09:50:30.343Z,7.40
2018-03-30T09:52:58.480Z,6.10
2018-03-30T09:55:26.194Z,6.87
2018-03-30T09:57:54.225Z,6.47
2018-03-30T10:00:22.470Z,7.97
2018-03-30T10:02:50.374Z,6.97
2018-03-30T10:05:18.643Z,7.00
2018-03-30T10:07:46.538Z,7.13
2018-03-30T10:10:14.230Z,6.97
2018-03-30T10:12:42.427Z,6.40
2018-03-30T10:15:10.125Z,6.70
2018-03-30T10:17:37.933Z,7.10
2018-03-30T10:20:05.778Z,6.47
2018-03-30T10:22:34.287Z,6.23
2018-03-30T10:25:02.770Z,6.00
2018-03-30T10:27:31.671Z,7.23
2018-03-30T10:30:00.182Z,6.23
2018-03-30T10:32:28.229Z,6.80
2018-03-30T10:34:56.232Z,5.93
2018-03-30T10:37:24.023Z,6.60
2018-03-30T10:39:52.611Z,6.70
2018-03-30T10:42:20.548Z,7.13
2018-03-30T10:44:49.685Z,6.13
2018-03-30T10:47:18.103Z,6.10
2018-03-30T10:49:46.338Z,7.40
2018-03-30T10:52:14.517Z,6.50
2018-03-30T10:54:42.404Z,6.03
2018-03-30T10:57:10.492Z,6.00
2018-03-30T10:59:38.521Z,6.80
2018-03-30T11:02:06.270Z,6.27
2018-03-30T11:04:34.153Z,6.37
2018-03-30T11:07:02.880Z,5.93
2018-03-30T11:09:31.581Z,6.17
2018-03-30T11:11:59.649Z,7.00
2018-03-30T11:14:27.695Z,6.23
2018-03-30T11:16:55.676Z,6.23
2018-03-30T11:19:24.228Z,6.10
2018-03-30T11:21:52.080Z,5.93
2018-03-30T11:24:20.440Z,6.73
2018-03-30T11:26:48.686Z,6.20
2018-03-30T11:29:16.566Z,6.33
2018-03-30T11:31:44.287Z,5.60
2018-03-30T11:34:13.573Z,6.37
2018-03-30T11:36:41.814Z,6.67
2018-03-30T11:39:09.790Z,7.97
2018-03-30T11:41:37.981Z,6.93
2018-03-30T11:44:05.935Z,7.47
2018-03-30T11:46:33.834Z,8.23
2018-03-30T11:49:01.832Z,8.77
2018-03-30T11:51:29.531Z,8.93
2018-03-30T11:53:57.714Z,9.17
2018-03-30T11:56:25.538Z,13.17
2018-03-30T11:58:53.506Z,12.00
2018-03-30T12:01:21.386Z,10.07
2018-03-30T12:03:49.049Z,9.40
2018-03-30T12:06:16.757Z,8.70
2018-03-30T12:08:44.640Z,10.50
2018-03-30T12:11:12.317Z,13.00
2018-03-30T12:13:40.368Z,10.43
2018-03-30T12:16:09.065Z,11.70
2018-03-30T12:18:36.793Z,10.57
2018-03-30T12:21:04.894Z,10.80
2018-03-30T12:23:34.024Z,10.60
2018-03-30T12:26:01.892Z,10.50
2018-03-30T12:28:29.793Z,9.03
2018-03-30T12:30:57.758Z,9.70
2018-03-30T12:33:25.595Z,8.90
2018-03-30T12:35:53.383Z,8.60
2018-03-30T12:38:21.704Z,8.83
2018-03-30T12:40:50.676Z,8.37
2018-03-30T12:43:20.033Z,8.73
2018-03-30T12:45:47.927Z,8.50
2018-03-30T12:48:15.641Z,9.37
2018-03-30T12:50:43.849Z,8.00
2018-03-30T12:53:12.513Z,7.40
2018-03-30T12:55:40.103Z,9.57
2018-03-30T12:58:07.821Z,8.50
2018-03-30T13:00:35.589Z,9.03
2018-03-30T13:03:04.149Z,8.40
2018-03-30T13:05:31.978Z,7.67
2018-03-30T13:08:00.046Z,7.90
2018-03-30T13:10:28.454Z,7.70
2018-03-30T13:12:56.701Z,9.83
2018-03-30T13:15:24.643Z,7.83
2018-03-30T13:17:52.767Z,9.23
2018-03-30T13:20:21.978Z,9.50
2018-03-30T13:22:51.264Z,10.00
2018-03-30T13:25:19.514Z,8.20
2018-03-30T13:27:47.418Z,8.93
2018-03-30T13:30:15.195Z,9.33
2018-03-30T13:32:42.919Z,9.47
2018-03-30T13:35:11.508Z,10.13
2018-03-30T13:37:39.661Z,9.80
2018-03-30T13:40:08.114Z,10.97
2018-03-30T13:42:37.021Z,8.90
2018-03-30T13:45:04.837Z,11.70
2018-03-30T13:47:32.618Z,11.73
2018-03-30T13:50:01.066Z,10.93
2018-03-30T13:52:30.537Z,10.87
2018-03-30T13:54:59.337Z,11.10
2018-03-30T13:57:27.415Z,11.73
2018-03-30T13:59:55.065Z,13.93
2018-03-30T14:02:22.779Z,14.70
2018-03-30T14:04:50.824Z,15.60
2018-03-30T14:07:19.388Z,13.47
2018-03-30T14:09:48.111Z,17.07
2018-03-30T14:12:17.563Z,16.20
2018-03-30T14:14:45.294Z,14.90
2018-03-30T14:17:13.927Z,15.57
2018-03-30T14:19:41.916Z,17.40
2018-03-30T14:22:10.055Z,17.40
2018-03-30T14:24:37.721Z,14.93
2018-03-30T14:27:05.233Z,14.57
2018-03-30T14:29:33.245Z,15.23
2018-03-30T14:32:01.112Z,13.67
2018-03-30T14:34:30.112Z,13.70
2018-03-30T14:36:59.295Z,13.90
2018-03-30T14:39:27.374Z,14.10
2018-03-30T14:41:55.285Z,13.03
2018-03-30T14:44:23.175Z,13.43
2018-03-30T14:46:51.282Z,15.20
2018-03-30T14:49:21.047Z,15.90
2018-03-30T14:51:50.402Z,16.27
2018-03-30T14:54:18.513Z,16.20
2018-03-30T14:56:48.102Z,13.73
2018-03-30T14:59:16.984Z,14.93
2018-03-30T15:01:44.638Z,15.43
2018-03-30T15:04:12.615Z,14.60
2018-03-30T15:06:41.267Z,17.43
2018-03-30T15:09:09.675Z,17.63
2018-03-30T15:11:38.212Z,19.33
2018-03-30T15:14:06.558Z,18.43
2018-03-30T15:16:34.368Z,15.63
2018-03-30T15:19:02.402Z,15.83
2018-03-30T15:21:31.637Z,15.27
2018-03-30T15:24:00.058Z,23.00
2018-03-30T15:26:27.934Z,19.70
2018-03-30T15:28:55.672Z,25.23
2018-03-30T15:31:23.659Z,22.10
2018-03-30T15:33:51.570Z,23.60
2018-03-30T15:36:20.524Z,18.57
2018-03-30T15:38:49.400Z,17.40
2018-03-30T15:41:17.106Z,18.67
2018-03-30T15:43:48.671Z,15.53
2018-03-30T15:46:16.625Z,14.20
2018-03-30T15:48:44.455Z,14.57
2018-03-30T15:51:12.442Z,12.37
2018-03-30T15:53:40.306Z,12.10
2018-03-30T15:56:08.608Z,12.63
2018-03-30T15:58:37.270Z,11.93
2018-03-30T16:01:05.226Z,11.10
2018-03-30T16:03:33.139Z,11.17
2018-03-30T16:06:02.069Z,11.50
2018-03-30T16:08:30.347Z,10.73
2018-03-30T16:10:58.067Z,11.40
2018-03-30T16:13:25.975Z,10.40
2018-03-30T16:15:53.919Z,11.10
2018-03-30T16:18:22.175Z,11.27
2018-03-30T16:20:49.881Z,9.80
2018-03-30T16:23:18.431Z,9.43
2018-03-30T16:25:46.054Z,9.60
2018-03-30T16:28:13.496Z,9.87
2018-03-30T16:30:41.252Z,11.13
2018-03-30T16:33:09.593Z,11.43
2018-03-30T16:35:37.288Z,11.83
2018-03-30T16:38:06.077Z,11.80
2018-03-30T16:40:34.879Z,9.60
2018-03-30T16:43:03.662Z,9.60
2018-03-30T16:45:31.288Z,8.93
2018-03-30T16:47:58.735Z,8.90
2018-03-30T16:50:26.187Z,9.47
2018-03-30T16:52:53.749Z,9.57
2018-03-30T16:55:21.429Z,10.50
2018-03-30T16:57:49.663Z,10.67
2018-03-30T17:00:17.116Z,10.10
2018-03-30T17:02:44.947Z,10.57
2018-03-30T17:05:13.382Z,10.80
2018-03-30T17:07:40.835Z,11.03
2018-03-30T17:10:08.323Z,10.60
2018-03-30T17:12:35.821Z,10.40
2018-03-30T17:15:03.351Z,10.13
2018-03-30T17:17:32.356Z,11.10
2018-03-30T17:20:00.632Z,10.37
2018-03-30T17:22:28.841Z,10.50
2018-03-30T17:24:56.601Z,11.57
2018-03-30T17:27:26.929Z,11.37
2018-03-30T17:29:54.776Z,11.10
2018-03-30T17:32:23.094Z,10.63
2018-03-30T17:34:51.376Z,10.20
2018-03-30T17:37:19.851Z,11.27
2018-03-30T17:39:47.533Z,11.97
2018-03-30T17:42:15.021Z,13.17
2018-03-30T17:44:42.545Z,12.67
2018-03-30T17:47:11.532Z,12.50
2018-03-30T17:49:39.128Z,12.60
2018-03-30T17:52:07.616Z,12.17
2018-03-30T17:54:36.192Z,11.77
2018-03-30T17:57:03.669Z,12.43
2018-03-30T17:59:31.620Z,10.60
2018-03-30T18:01:59.403Z,10.50
2018-03-30T18:04:27.866Z,9.80
2018-03-30T18:06:56.447Z,10.37
2018-03-30T18:09:24.799Z,10.23
2018-03-30T18:11:52.370Z,10.73
2018-03-30T18:14:20.778Z,8.93
2018-03-30T18:16:48.981Z,8.30
2018-03-30T18:19:16.528Z,9.40
2018-03-30T18:21:44.372Z,8.33
2018-03-30T18:24:12.746Z,8.77
2018-03-30T18:26:40.418Z,8.33
2018-03-30T18:29:08.680Z,8.43
2018-03-30T18:31:36.186Z,9.00
2018-03-30T18:34:03.906Z,8.80
2018-03-30T18:36:31.560Z,7.90
2018-03-30T18:38:59.134Z,8.30
2018-03-30T18:41:26.667Z,7.70
2018-03-30T18:43:55.271Z,7.90
2018-03-30T18:46:23.625Z,8.10
2018-03-30T18:48:51.818Z,8.17
2018-03-30T18:51:20.062Z,7.70
2018-03-30T18:53:47.625Z,8.63
2018-03-30T18:56:15.314Z,8.60
2018-03-30T18:58:42.982Z,8.30
2018-03-30T19:01:10.720Z,8.10
2018-03-30T19:03:38.608Z,8.50
2018-03-30T19:06:08.399Z,7.57
2018-03-30T19:08:36.298Z,7.00
2018-03-30T19:11:04.531Z,6.30
2018-03-30T19:13:32.240Z,6.83
2018-03-30T19:15:59.768Z,7.30
2018-03-30T19:18:28.354Z,6.50
2018-03-30T19:20:57.069Z,6.60
2018-03-30T19:23:24.685Z,6.57
2018-03-30T19:25:54.000Z,5.77
2018-03-30T19:28:21.482Z,6.87
2018-03-30T19:30:49.004Z,6.33
2018-03-30T19:33:17.423Z,6.43
2018-03-30T19:35:45.001Z,6.07
2018-03-30T19:38:12.552Z,6.47
2018-03-30T19:40:40.111Z,6.37
2018-03-30T19:43:07.569Z,6.43
2018-03-30T19:45:35.724Z,5.60
2018-03-30T19:48:03.276Z,6.53
2018-03-30T19:50:31.113Z,6.53
2018-03-30T19:52:58.680Z,7.33
2018-03-30T19:55:26.209Z,7.80
2018-03-30T19:57:53.742Z,7.10
2018-03-30T20:00:21.305Z,6.60
2018-03-30T20:02:49.595Z,7.63
2018-03-30T20:05:17.359Z,6.17
2018-03-30T20:07:44.878Z,7.23
2018-03-30T20:10:14.308Z,6.10
2018-03-30T20:12:42.791Z,7.23
2018-03-30T20:15:11.094Z,7.60
2018-03-30T20:17:39.017Z,7.07
2018-03-30T20:20:07.284Z,6.00
2018-03-30T20:22:35.840Z,6.50
2018-03-30T20:25:03.375Z,6.40
2018-03-30T20:27:30.802Z,7.03
2018-03-30T20:29:59.122Z,6.47
2018-03-30T20:32:26.730Z,7.33
2018-03-30T20:34:54.950Z,7.10
2018-03-30T20:37:22.469Z,6.03
2018-03-30T20:39:50.728Z,6.90
2018-03-30T20:42:18.249Z,6.47
2018-03-30T20:44:45.851Z,5.73
2018-03-30T20:47:14.123Z,6.50
2018-03-30T20:49:42.232Z,7.53
2018-03-30T20:52:09.928Z,6.07
2018-03-30T20:54:37.417Z,7.10
2018-03-30T20:57:06.155Z,7.00
2018-03-30T20:59:33.990Z,7.43
2018-03-30T21:02:01.858Z,6.93
2018-03-30T21:04:29.928Z,7.03
2018-03-30T21:06:58.518Z,6.43
2018-03-30T21:09:26.319Z,7.03
2018-03-30T21:11:53.839Z,6.20
2018-03-30T21:14:22.422Z,7.63
2018-03-30T21:16:51.106Z,8.00
2018-03-30T21:19:19.673Z,6.67
2018-03-30T21:21:48.388Z,7.20
2018-03-30T21:24:16.045Z,6.20
2018-03-30T21:26:43.808Z,6.57
2018-03-30T21:29:11.437Z,7.77
2018-03-30T21:31:39.092Z,7.33
2018-03-30T21:34:06.731Z,6.30
2018-03-30T21:36:34.524Z,6.87
2018-03-30T21:39:02.823Z,7.83
2018-03-30T21:41:31.219Z,7.83
2018-03-30T21:43:59.680Z,8.13
2018-03-30T21:46:29.515Z,8.20
2018-03-30T21:48:58.050Z,8.10
2018-03-30T21:51:26.387Z,7.90
2018-03-30T21:53:53.956Z,7.17
2018-03-30T21:56:21.851Z,7.07
2018-03-30T21:58:49.390Z,6.97
2018-03-30T22:01:17.028Z,7.27
2018-03-30T22:03:45.253Z,6.93
2018-03-30T22:06:13.975Z,6.87
2018-03-30T22:08:41.554Z,7.37
2018-03-30T22:11:09.111Z,6.97
2018-03-30T22:13:36.762Z,8.53
2018-03-30T22:16:04.357Z,7.10
2018-03-30T22:18:32.736Z,7.40
2018-03-30T22:21:00.405Z,8.03
2018-03-30T22:23:28.311Z,7.23
2018-03-30T22:25:56.032Z,7.53
2018-03-30T22:28:23.893Z,6.97
2018-03-30T22:30:52.672Z,6.50
2018-03-30T22:33:21.708Z,7.20
2018-03-30T22:35:53.706Z,7.43
2018-03-30T22:38:21.841Z,7.00
2018-03-30T22:40:49.464Z,7.50
2018-03-30T22:43:18.637Z,7.10
2018-03-30T22:45:46.608Z,6.83
2018-03-30T22:48:15.448Z,6.87
2018-03-30T22:50:43.045Z,7.23
2018-03-30T22:53:11.389Z,7.03
2018-03-30T22:55:39.147Z,6.77
2018-03-30T22:58:06.962Z,7.00
2018-03-30T23:00:35.340Z,7.07
2018-03-30T23:03:03.927Z,6.60
2018-03-30T23:05:31.719Z,7.00
2018-03-30T23:07:59.320Z,6.57
2018-03-30T23:10:27.597Z,7.60
2018-03-30T23:12:55.138Z,6.40
2018-03-30T23:15:23.161Z,6.17
2018-03-30T23:17:51.585Z,6.70
2018-03-30T23:20:20.206Z,6.93
2018-03-30T23:22:47.868Z,7.40
2018-03-30T23:25:15.763Z,6.50
2018-03-30T23:27:43.295Z,7.63
2018-03-30T23:30:12.110Z,6.97
2018-03-30T23:32:39.990Z,7.70
2018-03-30T23:35:07.635Z,7.27
2018-03-30T23:37:35.957Z,7.17
2018-03-30T23:40:03.769Z,6.87
2018-03-30T23:42:31.314Z,7.40
2018-03-30T23:44:59.730Z,7.13
2018-03-30T23:47:27.283Z,9.23
2018-03-30T23:49:55.244Z,7.93
2018-03-30T23:52:23.933Z,8.90
2018-03-30T23:54:51.673Z,8.00
2018-03-30T23:57:20.281Z,9.30
2018-03-30T23:59:48.656Z,9.20
